Time;durP1;ratioP1;P1;durP2;ratioP2;P2;SDS_P1;SDS_P2;PMS_P1;PMS_P2;Temp;Humidity;BMP_temperature;BMP_pressure;BME280_temperature;BME280_humidity;BME280_pressure;Samples;Min_cycle;Max_cycle;Signal;HPM_P1;HPM_P2
2022/08/30 00:03:26;;;;;;;1.58;0.70;;;17.00;99.90;;;;;;5032373;28;20068;-79
2022/08/30 00:05:53;;;;;;;0.82;0.60;;;17.00;99.90;;;;;;5046399;28;20486;-77
2022/08/30 00:08:21;;;;;;;0.90;0.45;;;17.00;99.90;;;;;;5029258;28;20084;-78
2022/08/30 00:10:50;;;;;;;0.77;0.50;;;16.90;99.90;;;;;;5026610;28;20139;-78
2022/08/30 00:13:17;;;;;;;1.13;0.68;;;16.90;99.90;;;;;;5011048;28;20409;-78
2022/08/30 00:15:44;;;;;;;0.80;0.63;;;16.80;99.90;;;;;;5020199;28;20488;-76
2022/08/30 00:18:11;;;;;;;0.50;0.50;;;16.70;99.90;;;;;;5029437;28;20498;-78
2022/08/30 00:20:38;;;;;;;0.70;0.68;;;16.70;99.90;;;;;;5045945;28;20053;-77
2022/08/30 00:23:05;;;;;;;0.45;0.45;;;16.70;99.90;;;;;;5047614;28;20559;-77
2022/08/30 00:25:33;;;;;;;0.80;0.50;;;16.60;99.90;;;;;;5046264;28;20477;-77
2022/08/30 00:28:01;;;;;;;0.40;0.40;;;16.60;99.90;;;;;;5046781;28;20095;-78
2022/08/30 00:30:28;;;;;;;0.65;0.57;;;16.60;99.90;;;;;;5044917;28;20140;-76
2022/08/30 00:32:54;;;;;;;1.17;0.77;;;16.50;99.90;;;;;;5029479;28;20103;-77
2022/08/30 00:35:22;;;;;;;0.93;0.70;;;16.50;99.90;;;;;;5029295;28;20558;-78
2022/08/30 00:37:49;;;;;;;1.00;0.70;;;16.40;99.90;;;;;;5046612;28;20053;-78
2022/08/30 00:40:19;;;;;;;1.45;0.70;;;16.40;99.90;;;;;;5045855;28;20091;-77
2022/08/30 00:42:54;;;;;;;0.70;0.50;;;16.40;99.90;;;;;;5030332;28;20132;-77
2022/08/30 00:45:28;;;;;;;0.63;0.55;;;16.40;99.90;;;;;;5026346;28;20108;-78
2022/08/30 00:47:55;;;;;;;0.60;0.55;;;16.30;99.90;;;;;;5009975;28;20049;-78
2022/08/30 00:50:25;;;;;;;0.40;0.40;;;16.30;99.90;;;;;;5050175;28;20483;-76
2022/08/30 00:52:52;;;;;;;0.40;0.40;;;16.30;99.90;;;;;;5033868;28;20259;-77
2022/08/30 00:55:19;;;;;;;0.63;0.47;;;16.30;99.90;;;;;;5050163;28;20459;-77
2022/08/30 00:57:46;;;;;;;1.02;0.80;;;16.30;99.90;;;;;;5032952;28;20056;-77
2022/08/30 01:00:14;;;;;;;0.50;0.40;;;16.20;99.90;;;;;;5013338;28;20049;-77
2022/08/30 01:02:41;;;;;;;1.05;0.60;;;16.20;99.90;;;;;;5010525;28;20052;-79
2022/08/30 01:05:09;;;;;;;0.60;0.60;;;16.20;99.90;;;;;;5043341;28;20139;-78
2022/08/30 01:07:41;;;;;;;1.85;0.60;;;16.20;99.90;;;;;;5047941;28;20049;-79
2022/08/30 01:10:10;;;;;;;0.73;0.50;;;16.10;99.90;;;;;;5050889;28;20107;-79
2022/08/30 01:12:37;;;;;;;0.63;0.40;;;16.10;99.90;;;;;;5048826;28;20107;-77
2022/08/30 01:15:05;;;;;;;0.45;0.40;;;16.10;99.90;;;;;;5029748;28;20103;-78
2022/08/30 01:17:31;;;;;;;0.75;0.50;;;16.00;99.90;;;;;;5028873;28;20069;-77
2022/08/30 01:20:07;;;;;;;0.40;0.40;;;16.00;99.90;;;;;;5026377;28;20088;-77
2022/08/30 01:22:49;;;;;;;0.43;0.35;;;15.90;99.90;;;;;;5028991;28;20050;-78
2022/08/30 01:25:22;;;;;;;0.98;0.70;;;16.00;99.90;;;;;;5047061;28;20076;-76
2022/08/30 01:28:09;;;;;;;1.10;0.50;;;15.90;99.90;;;;;;5048629;28;20098;-78
2022/08/30 01:47:51;;;;;;;0.73;0.65;;;15.80;99.90;;;;;;5732473;23;20102;-86
2022/08/30 01:50:19;;;;;;;0.80;0.55;;;15.90;99.90;;;;;;4924485;29;20063;-87
2022/08/30 01:52:46;;;;;;;0.50;0.50;;;15.90;99.90;;;;;;4938345;29;20047;-85
2022/08/30 01:55:13;;;;;;;0.40;0.40;;;15.90;99.90;;;;;;4939790;29;20047;-86
2022/08/30 01:57:40;;;;;;;0.50;0.50;;;16.00;99.90;;;;;;4939858;29;20134;-86
2022/08/30 02:00:08;;;;;;;0.88;0.60;;;15.90;99.90;;;;;;4941356;29;20114;-86
2022/08/30 02:02:36;;;;;;;1.48;0.68;;;15.90;99.90;;;;;;4938086;29;20486;-90
2022/08/30 02:05:03;;;;;;;0.63;0.60;;;15.90;99.90;;;;;;4937009;29;20055;-89
2022/08/30 02:07:30;;;;;;;0.98;0.70;;;15.90;99.90;;;;;;4921100;29;20338;-87
2022/08/30 02:09:57;;;;;;;0.50;0.50;;;15.90;99.90;;;;;;4908076;29;20122;-87
2022/08/30 02:12:24;;;;;;;1.20;0.80;;;15.90;99.90;;;;;;4905153;29;20119;-90
2022/08/30 02:14:52;;;;;;;0.80;0.68;;;15.80;99.90;;;;;;4937720;29;20086;-88
2022/08/30 02:17:19;;;;;;;1.00;0.60;;;15.80;99.90;;;;;;4921012;29;20055;-85
2022/08/30 02:19:46;;;;;;;0.98;0.80;;;15.80;99.90;;;;;;4937315;29;20411;-87
2022/08/30 02:22:13;;;;;;;0.57;0.57;;;15.80;99.90;;;;;;4936443;29;20051;-87
2022/08/30 02:24:40;;;;;;;1.00;0.60;;;15.80;99.90;;;;;;4921322;29;20059;-86
2022/08/30 02:27:07;;;;;;;0.75;0.65;;;15.80;99.90;;;;;;4920951;29;20051;-88
2022/08/30 02:29:34;;;;;;;0.50;0.50;;;15.70;99.90;;;;;;4937441;29;20051;-85
2022/08/30 02:32:01;;;;;;;0.93;0.60;;;15.70;99.90;;;;;;4919019;29;20050;-90
2022/08/30 02:34:28;;;;;;;0.50;0.43;;;15.70;99.90;;;;;;4920867;29;20062;-86
2022/08/30 02:36:55;;;;;;;0.68;0.50;;;15.70;99.90;;;;;;4942565;29;20055;-88
2022/08/30 02:39:22;;;;;;;0.47;0.47;;;15.70;99.90;;;;;;4921107;29;20047;-86
2022/08/30 02:41:49;;;;;;;0.60;0.60;;;15.70;99.90;;;;;;4917191;29;20106;-87
2022/08/30 02:44:16;;;;;;;0.50;0.50;;;15.60;99.90;;;;;;4918170;29;20051;-89
2022/08/30 02:46:43;;;;;;;0.30;0.30;;;15.60;99.90;;;;;;4917520;29;20059;-87
2022/08/30 02:49:10;;;;;;;0.43;0.43;;;15.60;99.90;;;;;;4916923;29;20055;-86
2022/08/30 02:51:57;;;;;;;0.32;0.32;;;15.50;99.90;;;;;;4936034;29;20510;-87
2022/08/30 02:54:24;;;;;;;0.25;0.20;;;15.50;99.90;;;;;;4933708;29;20055;-87
2022/08/30 02:56:51;;;;;;;0.40;0.40;;;15.40;99.90;;;;;;4916850;29;20055;-86
2022/08/30 02:59:18;;;;;;;0.52;0.52;;;15.40;99.90;;;;;;4916269;29;20066;-86
2022/08/30 03:01:45;;;;;;;1.00;0.57;;;15.40;99.90;;;;;;4916337;29;20055;-88
2022/08/30 03:04:12;;;;;;;0.50;0.40;;;15.40;99.90;;;;;;4913916;29;20379;-87
2022/08/30 03:06:39;;;;;;;0.63;0.50;;;15.30;99.90;;;;;;4914484;29;20471;-87
2022/08/30 03:09:06;;;;;;;0.47;0.30;;;15.30;99.90;;;;;;4899921;29;20051;-88
2022/08/30 03:11:33;;;;;;;0.40;0.40;;;15.20;99.90;;;;;;4908355;29;20091;-87
2022/08/30 03:14:00;;;;;;;0.40;0.40;;;15.20;99.90;;;;;;4927364;28;20055;-87
2022/08/30 03:16:27;;;;;;;0.90;0.55;;;15.20;99.90;;;;;;4937871;28;20266;-87
2022/08/30 03:18:55;;;;;;;0.65;0.40;;;15.10;99.90;;;;;;4937659;28;20561;-87
2022/08/30 03:21:22;;;;;;;0.55;0.50;;;15.10;99.90;;;;;;4928575;29;20059;-87
2022/08/30 03:23:49;;;;;;;0.55;0.50;;;15.10;99.90;;;;;;4913844;29;20047;-87
2022/08/30 03:26:16;;;;;;;0.88;0.50;;;15.10;99.90;;;;;;4897866;29;20127;-89
2022/08/30 03:28:43;;;;;;;1.02;0.50;;;15.00;99.90;;;;;;4897647;29;20483;-88
2022/08/30 03:31:10;;;;;;;0.55;0.50;;;15.00;99.90;;;;;;4903569;29;20059;-87
2022/08/30 03:33:39;;;;;;;0.40;0.40;;;15.00;99.90;;;;;;4919225;29;20047;-86
2022/08/30 03:36:07;;;;;;;0.40;0.40;;;15.00;99.90;;;;;;4916743;29;20495;-87
2022/08/30 03:38:34;;;;;;;0.90;0.60;;;14.90;99.90;;;;;;4917140;29;20055;-87
2022/08/30 03:41:01;;;;;;;0.60;0.35;;;14.90;99.90;;;;;;4918248;29;20063;-87
2022/08/30 03:43:29;;;;;;;0.65;0.60;;;14.90;99.90;;;;;;4917229;29;20055;-88
2022/08/30 03:45:57;;;;;;;0.98;0.50;;;14.80;99.90;;;;;;4917047;29;20394;-86
2022/08/30 03:48:24;;;;;;;0.73;0.63;;;14.80;99.90;;;;;;4916721;29;20535;-88
2022/08/30 03:50:52;;;;;;;1.20;0.73;;;14.80;99.90;;;;;;4916552;29;20063;-88
2022/08/30 03:53:19;;;;;;;0.50;0.50;;;14.80;99.90;;;;;;4913644;29;20083;-87
2022/08/30 03:55:46;;;;;;;0.82;0.65;;;14.70;99.90;;;;;;4898396;29;20059;-87
2022/08/30 03:58:14;;;;;;;1.15;0.75;;;14.80;99.90;;;;;;4915170;29;20067;-88
2022/08/30 04:00:45;;;;;;;0.85;0.70;;;14.70;99.90;;;;;;4903549;28;20059;-88
2022/08/30 04:03:12;;;;;;;0.70;0.65;;;14.70;99.90;;;;;;4936538;28;20494;-87
2022/08/30 04:05:39;;;;;;;0.73;0.70;;;14.70;99.90;;;;;;4936291;28;20054;-87
2022/08/30 04:08:09;;;;;;;1.30;0.73;;;14.70;99.90;;;;;;4935799;28;20070;-88
2022/08/30 04:10:36;;;;;;;0.80;0.70;;;14.70;99.90;;;;;;4935632;28;20058;-87
2022/08/30 04:13:04;;;;;;;0.85;0.60;;;14.70;99.90;;;;;;4916567;29;20058;-86
2022/08/30 04:15:31;;;;;;;0.55;0.50;;;14.70;99.90;;;;;;4916192;29;20055;-87
2022/08/30 04:17:58;;;;;;;1.40;0.60;;;14.70;99.90;;;;;;4931582;29;20541;-87
2022/08/30 04:20:26;;;;;;;0.70;0.60;;;14.70;99.90;;;;;;4916221;29;20047;-86
2022/08/30 04:22:53;;;;;;;0.82;0.50;;;14.70;99.90;;;;;;4938203;28;20059;-87
2022/08/30 04:25:20;;;;;;;0.68;0.60;;;14.70;99.90;;;;;;4940210;28;20469;-87
2022/08/30 04:27:48;;;;;;;0.47;0.47;;;14.70;99.90;;;;;;4940177;28;20108;-86
2022/08/30 04:30:17;;;;;;;0.60;0.60;;;14.60;99.90;;;;;;4941270;28;20065;-87
2022/08/30 04:32:44;;;;;;;0.43;0.40;;;14.60;99.90;;;;;;4921026;29;20391;-87
2022/08/30 04:35:12;;;;;;;0.77;0.50;;;14.60;99.90;;;;;;4921504;29;20170;-88
2022/08/30 04:37:39;;;;;;;0.57;0.57;;;14.60;99.90;;;;;;4922267;29;20051;-88
2022/08/30 04:40:07;;;;;;;0.65;0.50;;;14.60;99.90;;;;;;4923672;29;20085;-89
2022/08/30 04:42:34;;;;;;;0.50;0.50;;;14.50;99.90;;;;;;4923026;29;20051;-88
2022/08/30 04:45:03;;;;;;;1.40;0.70;;;14.50;99.90;;;;;;4938409;29;20055;-89
2022/08/30 04:47:31;;;;;;;1.52;0.63;;;14.50;99.90;;;;;;4935283;29;20067;-89
2022/08/30 04:49:58;;;;;;;0.95;0.50;;;14.50;99.90;;;;;;4917664;29;20138;-90
2022/08/30 04:52:26;;;;;;;1.00;0.80;;;14.50;99.90;;;;;;4912970;29;20078;-89
2022/08/30 04:54:54;;;;;;;1.23;0.70;;;14.50;99.90;;;;;;4912062;29;20436;-90
2022/08/30 04:57:21;;;;;;;0.70;0.70;;;14.60;99.90;;;;;;4907654;29;20055;-90
2022/08/30 04:59:49;;;;;;;1.48;0.90;;;14.60;99.90;;;;;;4911481;29;20117;-88
2022/08/30 05:02:17;;;;;;;1.10;0.77;;;14.70;99.90;;;;;;4930491;28;20122;-89
2022/08/30 05:07:30;;;;;;;2.35;0.60;;;14.90;99.90;;;;;;4937521;29;20052;-88
2022/08/30 05:09:57;;;;;;;0.82;0.75;;;15.00;99.90;;;;;;4932347;29;20048;-89
2022/08/30 05:12:25;;;;;;;1.90;0.70;;;15.00;99.90;;;;;;4929829;29;20055;-89
2022/08/30 05:14:52;;;;;;;1.80;0.80;;;15.10;99.90;;;;;;4921932;29;20075;-90
2022/08/30 05:17:19;;;;;;;1.65;1.00;;;15.10;99.90;;;;;;4918733;29;20051;-89
2022/08/30 05:19:47;;;;;;;1.30;0.82;;;15.20;99.90;;;;;;4918777;29;20064;-89
2022/08/30 05:22:14;;;;;;;0.82;0.60;;;15.30;99.90;;;;;;4917792;29;20059;-88
2022/08/30 05:24:43;;;;;;;0.80;0.75;;;15.30;99.90;;;;;;4916577;29;20051;-89
2022/08/30 05:27:10;;;;;;;0.75;0.70;;;15.40;99.90;;;;;;4918114;29;20047;-87
2022/08/30 05:29:37;;;;;;;1.05;0.65;;;15.40;99.90;;;;;;4915663;29;20062;-89
2022/08/30 05:32:04;;;;;;;0.95;0.60;;;15.50;99.90;;;;;;4921810;29;20047;-89
2022/08/30 05:34:31;;;;;;;1.02;0.75;;;15.50;99.90;;;;;;4912956;29;20054;-87
2022/08/30 05:36:59;;;;;;;0.88;0.60;;;15.60;99.90;;;;;;4909754;29;20129;-87
2022/08/30 05:39:28;;;;;;;0.77;0.65;;;15.60;99.90;;;;;;4930648;29;20475;-88
2022/08/30 05:42:15;;;;;;;0.73;0.50;;;15.60;99.90;;;;;;4923939;29;20091;-88
2022/08/30 05:44:42;;;;;;;1.08;0.80;;;15.70;99.90;;;;;;4932656;28;20151;-88
2022/08/30 05:47:10;;;;;;;1.48;0.65;;;15.80;99.90;;;;;;4917955;29;20483;-89
2022/08/30 05:49:37;;;;;;;0.85;0.60;;;15.80;99.90;;;;;;4920874;29;20071;-90
2022/08/30 05:52:04;;;;;;;1.63;0.90;;;15.80;99.90;;;;;;4917912;29;20123;-88
2022/08/30 05:54:31;;;;;;;1.13;0.80;;;15.80;99.90;;;;;;4951278;28;20055;-88
2022/08/30 05:56:58;;;;;;;1.48;0.70;;;15.90;99.90;;;;;;4929772;29;20062;-88
2022/08/30 05:59:25;;;;;;;1.27;0.65;;;15.90;99.90;;;;;;4915235;29;20551;-90
2022/08/30 06:01:52;;;;;;;1.38;0.77;;;15.90;99.90;;;;;;4909914;29;20055;-90
2022/08/30 06:04:19;;;;;;;1.38;0.88;;;16.00;99.90;;;;;;4937040;29;20155;-89
2022/08/30 06:06:46;;;;;;;1.40;0.80;;;16.00;99.90;;;;;;4920799;29;20454;-89
2022/08/30 06:09:13;;;;;;;1.80;0.98;;;16.00;99.90;;;;;;4919114;29;20052;-90
2022/08/30 06:11:41;;;;;;;0.73;0.60;;;16.00;99.90;;;;;;4933705;28;20124;-92
2022/08/30 06:14:08;;;;;;;0.70;0.60;;;16.10;99.90;;;;;;4937392;29;20047;-94
2022/08/30 06:16:37;;;;;;;0.88;0.70;;;16.10;99.90;;;;;;4925736;28;20147;-89
2022/08/30 06:19:05;;;;;;;1.00;0.75;;;16.10;99.90;;;;;;4916488;29;20475;-92
2022/08/30 06:21:34;;;;;;;0.80;0.70;;;16.10;99.90;;;;;;4926733;28;20055;-92
2022/08/30 06:24:02;;;;;;;1.15;0.70;;;16.20;99.90;;;;;;4924178;29;20291;-90
2022/08/30 06:26:29;;;;;;;1.15;0.73;;;16.20;99.90;;;;;;4937299;28;20145;-90
2022/08/30 06:28:56;;;;;;;0.70;0.68;;;16.20;99.90;;;;;;4913917;29;20051;-91
2022/08/30 06:31:24;;;;;;;1.23;0.60;;;16.30;99.90;;;;;;4921199;28;20367;-91
2022/08/30 06:33:51;;;;;;;2.25;0.70;;;16.30;99.90;;;;;;4936536;28;20516;-90
2022/08/30 06:36:21;;;;;;;1.13;0.70;;;16.40;99.90;;;;;;4936237;28;20055;-90
2022/08/30 06:38:53;;;;;;;0.57;0.50;;;16.40;99.90;;;;;;4921265;29;20054;-91
2022/08/30 06:41:22;;;;;;;0.93;0.80;;;16.50;99.90;;;;;;4927147;29;20075;-90
2022/08/30 06:43:49;;;;;;;0.65;0.60;;;16.50;99.90;;;;;;4921004;29;20111;-90
2022/08/30 06:46:19;;;;;;;1.33;0.60;;;16.50;99.90;;;;;;4920953;29;20089;-90
2022/08/30 06:48:46;;;;;;;1.40;0.60;;;16.60;99.90;;;;;;4928511;29;20107;-89
2022/08/30 06:51:18;;;;;;;1.58;0.90;;;16.60;99.90;;;;;;4928966;29;20051;-91
2022/08/30 06:53:45;;;;;;;1.88;0.80;;;16.60;99.90;;;;;;4933311;28;20516;-92
2022/08/30 06:56:12;;;;;;;1.35;0.98;;;16.60;99.90;;;;;;4926536;28;20140;-91
2022/08/30 06:58:43;;;;;;;0.95;0.68;;;16.70;99.90;;;;;;4943324;28;20544;-91
2022/08/30 07:01:14;;;;;;;1.23;0.80;;;16.80;99.90;;;;;;4938007;28;20055;-90
2022/08/30 07:03:41;;;;;;;0.82;0.70;;;17.00;99.90;;;;;;4933268;28;20055;-90
2022/08/30 07:06:09;;;;;;;1.15;0.73;;;17.10;99.90;;;;;;4941006;28;20110;-94
2022/08/30 07:08:39;;;;;;;1.73;0.80;;;17.10;99.90;;;;;;4917541;29;20051;-90
2022/08/30 07:11:06;;;;;;;1.90;0.80;;;17.20;99.90;;;;;;4924242;28;20095;-90
2022/08/30 07:13:34;;;;;;;1.88;1.10;;;17.20;99.90;;;;;;4912615;29;20123;-91
2022/08/30 07:16:08;;;;;;;2.10;0.88;;;17.10;99.90;;;;;;4902300;29;20493;-90
2022/08/30 07:18:53;;;;;;;1.33;1.02;;;17.20;99.90;;;;;;4902257;29;20056;-91
2022/08/30 07:21:28;;;;;;;1.10;0.73;;;17.30;99.90;;;;;;4910794;28;20051;-91
2022/08/30 07:23:56;;;;;;;1.52;0.80;;;17.40;99.90;;;;;;4920974;29;20043;-92
2022/08/30 07:26:31;;;;;;;1.20;0.93;;;17.50;99.90;;;;;;4920551;29;20051;-91
2022/08/30 07:28:59;;;;;;;2.92;1.05;;;17.60;99.90;;;;;;4921166;29;20053;-92
2022/08/30 07:31:26;;;;;;;1.00;0.70;;;17.70;99.90;;;;;;4918186;29;20063;-93
2022/08/30 07:33:53;;;;;;;0.57;0.52;;;17.90;99.90;;;;;;4919798;28;20060;-91
2022/08/30 07:36:20;;;;;;;2.38;1.02;;;18.00;99.90;;;;;;4940588;28;20055;-89
2022/08/30 07:38:48;;;;;;;0.95;0.80;;;18.00;99.90;;;;;;4939791;28;20093;-89
2022/08/30 07:41:21;;;;;;;1.30;0.60;;;18.00;99.90;;;;;;4938941;28;20062;-90
2022/08/30 07:43:48;;;;;;;1.88;0.80;;;18.10;99.90;;;;;;4936417;28;20078;-91
2022/08/30 07:46:15;;;;;;;1.52;0.90;;;18.30;99.90;;;;;;4945436;28;20498;-90
2022/08/30 07:48:43;;;;;;;0.98;0.63;;;18.30;99.90;;;;;;4945233;28;20078;-90
2022/08/30 07:51:20;;;;;;;0.73;0.63;;;18.30;99.90;;;;;;4941669;28;20062;-91
2022/08/30 07:53:47;;;;;;;2.05;0.98;;;18.40;99.90;;;;;;4926818;28;20130;-91
2022/08/30 07:56:14;;;;;;;2.83;0.90;;;18.40;99.90;;;;;;4941141;28;20050;-92
2022/08/30 07:58:41;;;;;;;1.15;0.80;;;18.40;99.90;;;;;;4939730;28;20414;-91
2022/08/30 08:01:09;;;;;;;2.38;1.00;;;18.40;99.90;;;;;;4948896;28;20042;-90
2022/08/30 08:03:38;;;;;;;1.73;0.90;;;18.50;99.90;;;;;;4929691;28;20515;-91
2022/08/30 08:06:06;;;;;;;1.00;0.90;;;18.60;99.90;;;;;;4942132;28;20149;-92
2022/08/30 08:08:33;;;;;;;1.00;0.70;;;18.80;99.90;;;;;;4940574;28;20399;-91
2022/08/30 08:11:13;;;;;;;2.55;0.98;;;18.90;99.90;;;;;;4939512;28;20051;-91
2022/08/30 08:13:43;;;;;;;1.60;0.90;;;19.10;99.90;;;;;;4929932;28;20114;-92
2022/08/30 08:16:25;;;;;;;2.05;0.77;;;19.20;99.90;;;;;;4942483;28;20054;-91
2022/08/30 08:18:52;;;;;;;0.70;0.60;;;19.40;99.90;;;;;;4939515;28;20053;-92
2022/08/30 08:21:20;;;;;;;0.82;0.70;;;19.60;99.90;;;;;;4936048;28;20050;-92
2022/08/30 08:23:47;;;;;;;0.73;0.70;;;19.70;99.90;;;;;;4930192;28;20089;-92
2022/08/30 08:26:17;;;;;;;1.88;1.10;;;19.70;99.90;;;;;;4939687;28;20077;-92
2022/08/30 08:28:46;;;;;;;0.75;0.60;;;19.70;99.90;;;;;;4940158;28;20478;-92
2022/08/30 08:31:15;;;;;;;1.10;0.70;;;19.60;99.90;;;;;;4939121;28;20057;-91
2022/08/30 08:33:43;;;;;;;1.33;0.82;;;19.60;99.90;;;;;;4928431;29;20058;-92
2022/08/30 08:36:09;;;;;;;1.55;0.88;;;19.70;99.90;;;;;;4919059;29;20047;-92
2022/08/30 08:38:36;;;;;;;1.33;0.57;;;19.80;99.90;;;;;;4919772;29;20069;-91
2022/08/30 08:41:34;;;;;;;1.38;0.88;;;19.80;99.90;;;;;;4919596;29;20057;-93
2022/08/30 08:44:32;;;;;;;1.10;0.63;;;19.80;99.90;;;;;;4951347;29;20051;-91
2022/08/30 08:47:23;;;;;;;1.67;0.80;;;19.90;99.90;;;;;;4923760;29;20078;-93
2022/08/30 08:49:52;;;;;;;1.15;0.60;;;19.90;99.90;;;;;;4932836;29;20055;-90
2022/08/30 08:55:11;;;;;;;1.23;0.80;;;20.10;99.90;;;;;;4940092;29;20113;-91
2022/08/30 08:57:39;;;;;;;1.40;0.93;;;20.00;99.90;;;;;;4916392;29;20051;-91
2022/08/30 09:00:10;;;;;;;2.05;0.85;;;20.00;99.90;;;;;;4912396;29;20055;-92
2022/08/30 09:02:51;;;;;;;1.27;1.00;;;20.00;99.90;;;;;;4924565;29;20633;-91
2022/08/30 09:05:22;;;;;;;1.63;1.02;;;19.90;99.90;;;;;;4934852;28;20133;-91
2022/08/30 09:07:51;;;;;;;0.88;0.60;;;20.00;99.90;;;;;;4916064;29;20066;-93
2022/08/30 09:10:19;;;;;;;1.55;0.70;;;20.10;99.90;;;;;;4920659;29;20055;-91
2022/08/30 09:13:06;;;;;;;1.23;0.80;;;20.30;99.90;;;;;;4944928;28;20051;-92
2022/08/30 09:15:39;;;;;;;0.80;0.55;;;20.40;99.90;;;;;;4941015;28;20062;-92
2022/08/30 09:18:07;;;;;;;1.50;0.73;;;20.60;99.90;;;;;;4926439;29;20067;-93
2022/08/30 09:20:47;;;;;;;0.90;0.50;;;20.80;99.90;;;;;;4934389;29;20062;-94
2022/08/30 09:23:14;;;;;;;1.50;0.70;;;21.00;99.90;;;;;;4941379;28;20054;-91
2022/08/30 09:25:58;;;;;;;1.33;0.70;;;21.20;99.90;;;;;;4972217;28;20145;-91
2022/08/30 09:28:27;;;;;;;0.60;0.50;;;21.20;99.90;;;;;;4940491;28;20062;-91
2022/08/30 09:31:27;;;;;;;1.00;0.50;;;21.50;99.90;;;;;;4940966;28;20065;-92
2022/08/30 09:34:02;;;;;;;0.63;0.60;;;21.70;99.90;;;;;;4928317;29;20055;-91
2022/08/30 09:36:33;;;;;;;1.10;0.60;;;21.90;99.90;;;;;;4937395;29;20047;-92
2022/08/30 09:39:26;;;;;;;0.88;0.60;;;22.10;99.90;;;;;;4921806;29;20055;-92
2022/08/30 09:41:53;;;;;;;1.15;0.80;;;22.30;99.90;;;;;;4942626;28;20370;-92
2022/08/30 09:44:26;;;;;;;1.23;0.88;;;22.30;99.90;;;;;;4937306;28;20114;-91
2022/08/30 09:46:55;;;;;;;0.95;0.65;;;22.30;99.90;;;;;;4956839;28;20146;-91
2022/08/30 09:49:33;;;;;;;1.15;0.70;;;22.50;99.90;;;;;;4940503;28;20067;-91
2022/08/30 09:52:31;;;;;;;0.90;0.60;;;22.60;99.90;;;;;;4949854;29;20059;-91
2022/08/30 09:55:07;;;;;;;2.65;0.80;;;22.80;99.90;;;;;;4951688;28;20105;-92
2022/08/30 09:57:44;;;;;;;1.23;0.70;;;23.00;99.90;;;;;;4967664;28;20054;-92
2022/08/30 10:00:22;;;;;;;1.83;0.90;;;22.80;99.90;;;;;;4935760;29;20253;-95
2022/08/30 10:03:35;;;;;;;1.23;0.80;;;22.80;99.90;;;;;;4938283;29;20091;-93
2022/08/30 10:06:44;;;;;;;1.60;0.93;;;22.70;99.90;;;;;;4882400;29;20071;-94
2022/08/30 10:09:50;;;;;;;1.40;0.90;;;22.70;99.90;;;;;;4919250;28;20056;-95
2022/08/30 10:12:31;;;;;;;1.13;0.77;;;22.80;99.90;;;;;;4922469;29;20082;-95
2022/08/30 10:15:10;;;;;;;1.52;0.90;;;22.80;99.90;;;;;;4922901;29;20119;-93
2022/08/30 10:18:10;;;;;;;0.93;0.73;;;22.90;99.90;;;;;;4926773;29;20051;-93
2022/08/30 10:21:14;;;;;;;2.17;0.90;;;22.80;99.90;;;;;;4941796;29;20309;-94
2022/08/30 10:23:48;;;;;;;1.23;0.60;;;22.70;99.90;;;;;;4943146;28;20043;-92
2022/08/30 10:26:21;;;;;;;1.00;0.82;;;22.60;99.90;;;;;;4929125;29;20055;-93
2022/08/30 10:28:59;;;;;;;1.58;0.73;;;22.50;99.90;;;;;;4944486;29;20135;-93
2022/08/30 10:31:46;;;;;;;1.02;0.80;;;22.50;99.90;;;;;;4940723;29;20050;-94
2022/08/30 10:34:27;;;;;;;1.98;1.38;;;22.70;99.90;;;;;;4934596;28;20055;-93
2022/08/30 10:37:07;;;;;;;1.75;1.02;;;22.80;99.90;;;;;;4916893;29;20115;-94
2022/08/30 10:39:40;;;;;;;2.00;0.80;;;22.90;99.90;;;;;;4916511;29;20058;-93
2022/08/30 10:42:30;;;;;;;2.17;1.05;;;23.10;99.90;;;;;;4925658;29;20062;-93
2022/08/30 10:45:17;;;;;;;1.08;0.90;;;23.10;99.90;;;;;;4922532;29;20082;-94
2022/08/30 10:48:25;;;;;;;1.30;0.80;;;23.10;99.90;;;;;;4954174;29;20501;-94
2022/08/30 10:51:06;;;;;;;1.50;0.93;;;23.10;99.90;;;;;;4928693;29;20051;-94
2022/08/30 10:53:41;;;;;;;1.58;1.00;;;23.20;99.90;;;;;;4920621;29;20110;-93
2022/08/30 10:56:10;;;;;;;1.60;0.90;;;23.20;99.90;;;;;;4914574;29;20056;-93
2022/08/30 10:58:39;;;;;;;1.33;0.68;;;23.20;99.90;;;;;;4936029;29;20048;-93
2022/08/30 11:01:30;;;;;;;1.80;0.80;;;23.30;99.90;;;;;;4914207;29;20467;-94
2022/08/30 11:04:30;;;;;;;1.73;0.90;;;23.00;99.90;;;;;;4952875;28;20145;-93
2022/08/30 11:07:15;;;;;;;1.50;0.80;;;22.80;99.90;;;;;;4931870;29;20060;-91
2022/08/30 11:09:48;;;;;;;1.83;0.80;;;22.70;99.90;;;;;;4923105;29;20649;-92
2022/08/30 11:12:23;;;;;;;1.90;1.00;;;22.80;99.90;;;;;;4955458;28;20145;-92
2022/08/30 11:14:52;;;;;;;1.80;1.10;;;22.90;99.90;;;;;;4927197;29;20079;-92
2022/08/30 11:17:30;;;;;;;0.93;0.80;;;23.10;99.90;;;;;;4912546;29;20051;-91
2022/08/30 11:19:59;;;;;;;1.33;0.88;;;23.20;99.90;;;;;;4924574;29;20107;-93
2022/08/30 11:22:34;;;;;;;1.73;1.00;;;23.40;99.90;;;;;;4912062;29;20055;-92
2022/08/30 11:25:15;;;;;;;1.98;1.13;;;23.80;99.90;;;;;;4913720;29;20128;-90
2022/08/30 11:27:46;;;;;;;2.45;1.33;;;24.20;99.90;;;;;;4925532;29;20158;-91
2022/08/30 11:30:23;;;;;;;2.08;1.20;;;24.50;99.90;;;;;;4917610;29;20047;-92
2022/08/30 11:33:01;;;;;;;0.80;0.70;;;24.60;99.90;;;;;;4950755;28;20058;-92
2022/08/30 11:35:41;;;;;;;1.10;0.80;;;24.90;99.90;;;;;;4947233;29;20090;-92
2022/08/30 11:38:34;;;;;;;1.00;0.80;;;24.80;99.90;;;;;;4941801;29;20059;-94
2022/08/30 11:41:11;;;;;;;0.93;0.73;;;24.80;99.90;;;;;;4936822;29;20158;-91
2022/08/30 11:43:44;;;;;;;0.85;0.80;;;24.80;99.90;;;;;;4919886;29;20051;-94
2022/08/30 11:46:24;;;;;;;0.90;0.60;;;24.90;99.90;;;;;;4950690;29;20047;-93
2022/08/30 11:48:55;;;;;;;0.70;0.70;;;25.30;99.90;;;;;;4936322;29;20054;-93
2022/08/30 11:51:36;;;;;;;1.07;0.60;;;25.80;99.90;;;;;;4918119;29;20063;-94
2022/08/30 11:54:59;;;;;;;1.10;0.82;;;26.30;99.30;;;;;;4933500;29;20320;-92
2022/08/30 11:57:47;;;;;;;0.70;0.60;;;26.70;98.50;;;;;;4907858;29;20057;-93
2022/08/30 12:00:33;;;;;;;0.47;0.47;;;26.80;97.50;;;;;;4932768;29;20065;-92
2022/08/30 12:03:05;;;;;;;1.95;0.90;;;26.80;96.90;;;;;;4922563;29;20431;-93
2022/08/30 12:05:38;;;;;;;0.88;0.65;;;26.50;96.80;;;;;;4913006;29;20055;-94
2022/08/30 12:08:43;;;;;;;0.93;0.60;;;25.80;97.20;;;;;;4933904;29;20483;-94
2022/08/30 12:11:16;;;;;;;0.63;0.57;;;25.30;97.90;;;;;;4929781;29;20074;-93
2022/08/30 12:13:43;;;;;;;0.98;0.70;;;25.10;98.10;;;;;;4955652;28;20061;-94
2022/08/30 12:16:18;;;;;;;0.82;0.60;;;24.80;98.40;;;;;;4952116;28;20066;-93
2022/08/30 12:18:55;;;;;;;2.65;1.05;;;24.80;98.50;;;;;;4931902;29;20087;-93
2022/08/30 12:21:25;;;;;;;0.85;0.70;;;24.70;98.30;;;;;;4925238;29;20059;-94
2022/08/30 12:24:17;;;;;;;1.38;0.68;;;25.20;98.50;;;;;;4914812;29;20195;-92
2022/08/30 12:26:46;;;;;;;0.93;0.70;;;25.60;98.20;;;;;;4917262;29;20043;-94
2022/08/30 12:29:15;;;;;;;1.00;0.63;;;25.70;97.20;;;;;;4920547;29;20051;-93
2022/08/30 12:31:56;;;;;;;0.80;0.60;;;25.60;97.20;;;;;;4950343;29;20111;-94
2022/08/30 12:34:51;;;;;;;0.90;0.63;;;25.40;96.80;;;;;;4935993;29;20071;-95
2022/08/30 12:37:28;;;;;;;1.02;0.73;;;25.10;97.30;;;;;;4950507;29;20047;-96
2022/08/30 12:40:18;;;;;;;0.98;0.70;;;25.00;97.60;;;;;;4925313;29;20062;-91
2022/08/30 12:42:54;;;;;;;1.52;0.70;;;25.00;97.20;;;;;;4919718;29;20051;-89
2022/08/30 12:45:24;;;;;;;0.88;0.60;;;24.80;97.20;;;;;;4946265;29;20102;-92
2022/08/30 12:48:05;;;;;;;0.40;0.40;;;24.60;97.60;;;;;;4937805;29;20052;-93
2022/08/30 12:51:05;;;;;;;0.50;0.50;;;24.60;97.70;;;;;;4924096;29;20078;-91
2022/08/30 12:53:40;;;;;;;0.60;0.50;;;24.50;97.40;;;;;;4914828;28;20054;-92
2022/08/30 12:56:10;;;;;;;0.50;0.40;;;24.40;97.40;;;;;;4938872;29;20055;-93
2022/08/30 12:58:37;;;;;;;0.40;0.30;;;24.40;97.20;;;;;;4923637;29;21335;-93
2022/08/30 13:01:34;;;;;;;0.95;0.70;;;24.50;97.10;;;;;;4945223;29;20091;-93
2022/08/30 13:04:22;;;;;;;1.20;0.73;;;24.50;96.50;;;;;;4937656;29;20138;-92
2022/08/30 13:06:56;;;;;;;0.52;0.50;;;24.60;96.70;;;;;;4921768;29;20059;-95
2022/08/30 13:09:35;;;;;;;0.63;0.50;;;24.60;96.40;;;;;;4921985;29;20461;-92
2022/08/30 13:12:04;;;;;;;0.63;0.50;;;24.70;96.50;;;;;;4929205;29;20430;-92
2022/08/30 13:14:40;;;;;;;1.15;0.50;;;24.60;96.30;;;;;;4933948;28;20062;-93
2022/08/30 13:17:10;;;;;;;0.30;0.30;;;24.60;96.90;;;;;;4938254;28;20055;-93
2022/08/30 13:19:41;;;;;;;0.63;0.50;;;24.50;97.00;;;;;;4953608;28;20074;-92
2022/08/30 13:22:32;;;;;;;1.20;0.82;;;24.30;97.00;;;;;;4933478;29;20057;-92
2022/08/30 13:24:59;;;;;;;1.85;0.90;;;24.10;97.50;;;;;;4934522;28;20056;-92
2022/08/30 13:27:27;;;;;;;0.68;0.52;;;24.10;97.50;;;;;;4944021;28;20114;-92
2022/08/30 13:29:55;;;;;;;0.55;0.45;;;24.20;97.40;;;;;;4941835;28;20397;-93
2022/08/30 13:32:23;;;;;;;0.65;0.40;;;24.30;97.20;;;;;;4927427;29;20063;-93
2022/08/30 13:34:50;;;;;;;0.40;0.40;;;24.40;96.60;;;;;;4919641;29;20089;-92
2022/08/30 13:37:22;;;;;;;0.38;0.38;;;24.60;96.70;;;;;;4918401;29;20094;-92
2022/08/30 13:40:10;;;;;;;0.40;0.40;;;24.80;96.30;;;;;;4924774;29;20110;-92